sensor_id;sensor_type;location;lat;lon;timestamp;pressure;altitude;pressure_sealevel;temperature;humidity
59435;BME280;45241;49.768;8.636;2023-07-22T00:02:22;100068.22;;;20.09;73.23
59435;BME280;45241;49.768;8.636;2023-07-22T00:04:49;100067.25;;;20.20;72.88
59435;BME280;45241;49.768;8.636;2023-07-22T00:07:14;100068.63;;;20.22;72.78
59435;BME280;45241;49.768;8.636;2023-07-22T00:09:41;100076.81;;;19.95;74.17
59435;BME280;45241;49.768;8.636;2023-07-22T00:12:07;100067.91;;;20.00;74.25
59435;BME280;45241;49.768;8.636;2023-07-22T00:14:34;100067.13;;;20.05;74.67
59435;BME280;45241;49.768;8.636;2023-07-22T00:17:00;100070.19;;;20.13;73.50
59435;BME280;45241;49.768;8.636;2023-07-22T00:19:25;100073.75;;;20.14;73.35
59435;BME280;45241;49.768;8.636;2023-07-22T00:21:50;100082.81;;;19.98;73.92
59435;BME280;45241;49.768;8.636;2023-07-22T00:24:17;100080.94;;;19.98;73.83
59435;BME280;45241;49.768;8.636;2023-07-22T00:26:42;100081.28;;;20.07;73.76
59435;BME280;45241;49.768;8.636;2023-07-22T00:29:08;100084.56;;;20.09;75.04
59435;BME280;45241;49.768;8.636;2023-07-22T00:31:33;100082.59;;;19.99;75.36
59435;BME280;45241;49.768;8.636;2023-07-22T00:33:58;100080.06;;;19.92;77.23
59435;BME280;45241;49.768;8.636;2023-07-22T00:36:24;100076.22;;;19.88;77.29
59435;BME280;45241;49.768;8.636;2023-07-22T00:38:49;100081.81;;;20.04;76.50
59435;BME280;45241;49.768;8.636;2023-07-22T00:41:15;100073.13;;;20.07;75.54
59435;BME280;45241;49.768;8.636;2023-07-22T00:43:40;100081.38;;;19.90;77.05
59435;BME280;45241;49.768;8.636;2023-07-22T00:46:05;100078.53;;;20.02;76.04
59435;BME280;45241;49.768;8.636;2023-07-22T00:48:31;100077.69;;;19.74;77.67
59435;BME280;45241;49.768;8.636;2023-07-22T00:50:57;100081.94;;;19.70;75.73
59435;BME280;45241;49.768;8.636;2023-07-22T00:53:23;100076.25;;;19.72;76.16
59435;BME280;45241;49.768;8.636;2023-07-22T00:55:48;100076.88;;;19.74;76.56
59435;BME280;45241;49.768;8.636;2023-07-22T00:58:15;100077.84;;;19.89;75.23
59435;BME280;45241;49.768;8.636;2023-07-22T01:00:40;100080.50;;;19.84;75.27
59435;BME280;45241;49.768;8.636;2023-07-22T01:03:05;100078.00;;;19.34;77.75
59435;BME280;45241;49.768;8.636;2023-07-22T01:05:34;100068.94;;;19.72;75.85
59435;BME280;45241;49.768;8.636;2023-07-22T01:08:00;100063.00;;;19.75;76.45
59435;BME280;45241;49.768;8.636;2023-07-22T01:10:25;100060.69;;;19.67;76.38
59435;BME280;45241;49.768;8.636;2023-07-22T01:12:51;100064.81;;;19.70;76.32
59435;BME280;45241;49.768;8.636;2023-07-22T01:15:16;100069.41;;;19.69;77.06
59435;BME280;45241;49.768;8.636;2023-07-22T01:17:41;100064.19;;;19.41;77.57
59435;BME280;45241;49.768;8.636;2023-07-22T01:20:07;100068.94;;;19.50;79.02
59435;BME280;45241;49.768;8.636;2023-07-22T01:22:35;100066.34;;;19.38;77.86
59435;BME280;45241;49.768;8.636;2023-07-22T01:25:01;100063.91;;;19.37;76.65
59435;BME280;45241;49.768;8.636;2023-07-22T01:27:26;100064.72;;;19.37;77.89
59435;BME280;45241;49.768;8.636;2023-07-22T01:29:52;100065.66;;;19.26;79.48
59435;BME280;45241;49.768;8.636;2023-07-22T01:32:17;100059.03;;;19.39;79.68
59435;BME280;45241;49.768;8.636;2023-07-22T01:34:43;100060.66;;;19.40;79.81
59435;BME280;45241;49.768;8.636;2023-07-22T01:37:08;100067.28;;;19.27;79.76
59435;BME280;45241;49.768;8.636;2023-07-22T01:39:35;100059.66;;;19.46;78.71
59435;BME280;45241;49.768;8.636;2023-07-22T01:42:00;100069.50;;;19.52;78.67
59435;BME280;45241;49.768;8.636;2023-07-22T01:44:25;100065.16;;;19.51;78.26
59435;BME280;45241;49.768;8.636;2023-07-22T01:46:51;100063.34;;;19.35;79.59
59435;BME280;45241;49.768;8.636;2023-07-22T01:49:16;100066.03;;;19.57;79.02
59435;BME280;45241;49.768;8.636;2023-07-22T01:51:41;100062.13;;;19.48;80.00
59435;BME280;45241;49.768;8.636;2023-07-22T01:54:07;100065.91;;;19.47;81.11
59435;BME280;45241;49.768;8.636;2023-07-22T01:56:34;100061.66;;;19.56;79.61
59435;BME280;45241;49.768;8.636;2023-07-22T01:58:59;100058.00;;;19.45;80.10
59435;BME280;45241;49.768;8.636;2023-07-22T02:01:24;100067.59;;;19.31;79.85
59435;BME280;45241;49.768;8.636;2023-07-22T02:03:50;100058.81;;;19.46;78.45
59435;BME280;45241;49.768;8.636;2023-07-22T02:06:15;100057.88;;;19.57;79.40
59435;BME280;45241;49.768;8.636;2023-07-22T02:08:40;100061.88;;;19.49;79.11
59435;BME280;45241;49.768;8.636;2023-07-22T02:11:07;100058.13;;;19.55;79.20
59435;BME280;45241;49.768;8.636;2023-07-22T02:13:34;100057.88;;;19.57;79.07
59435;BME280;45241;49.768;8.636;2023-07-22T02:16:00;100056.16;;;19.29;78.63
59435;BME280;45241;49.768;8.636;2023-07-22T02:18:26;100062.31;;;19.41;78.42
59435;BME280;45241;49.768;8.636;2023-07-22T02:20:52;100054.34;;;19.34;78.72
59435;BME280;45241;49.768;8.636;2023-07-22T02:23:18;100048.31;;;19.32;78.96
59435;BME280;45241;49.768;8.636;2023-07-22T02:25:43;100054.53;;;19.50;78.71
59435;BME280;45241;49.768;8.636;2023-07-22T02:28:09;100050.22;;;19.54;78.33
59435;BME280;45241;49.768;8.636;2023-07-22T02:30:37;100057.31;;;19.55;77.31
59435;BME280;45241;49.768;8.636;2023-07-22T02:33:06;100052.69;;;19.55;77.82
59435;BME280;45241;49.768;8.636;2023-07-22T02:35:31;100058.00;;;19.45;78.61
59435;BME280;45241;49.768;8.636;2023-07-22T02:37:58;100060.63;;;19.35;78.78
59435;BME280;45241;49.768;8.636;2023-07-22T02:40:23;100062.13;;;19.48;78.62
59435;BME280;45241;49.768;8.636;2023-07-22T02:42:48;100065.91;;;19.47;79.18
59435;BME280;45241;49.768;8.636;2023-07-22T02:45:14;100070.53;;;19.24;79.82
59435;BME280;45241;49.768;8.636;2023-07-22T02:47:39;100069.25;;;19.32;77.95
59435;BME280;45241;49.768;8.636;2023-07-22T02:50:06;100068.94;;;19.28;79.24
59435;BME280;45241;49.768;8.636;2023-07-22T02:52:32;100069.44;;;19.25;78.07
59435;BME280;45241;49.768;8.636;2023-07-22T02:55:15;100066.44;;;19.22;79.50
59435;BME280;45241;49.768;8.636;2023-07-22T02:57:43;100063.75;;;19.27;78.58
59435;BME280;45241;49.768;8.636;2023-07-22T03:00:09;100063.84;;;18.76;81.67
59435;BME280;45241;49.768;8.636;2023-07-22T03:02:39;100063.00;;;19.10;80.71
59435;BME280;45241;49.768;8.636;2023-07-22T03:05:05;100058.59;;;19.25;80.26
59435;BME280;45241;49.768;8.636;2023-07-22T03:07:37;100058.94;;;19.12;80.57
59435;BME280;45241;49.768;8.636;2023-07-22T03:10:04;100064.28;;;19.24;80.00
59435;BME280;45241;49.768;8.636;2023-07-22T03:12:29;100069.44;;;19.25;80.34
59435;BME280;45241;49.768;8.636;2023-07-22T03:14:54;100063.88;;;19.15;80.19
59435;BME280;45241;49.768;8.636;2023-07-22T03:17:20;100065.09;;;19.24;79.68
59435;BME280;45241;49.768;8.636;2023-07-22T03:19:45;100065.22;;;19.34;79.63
59435;BME280;45241;49.768;8.636;2023-07-22T03:22:14;100062.75;;;19.33;79.61
59435;BME280;45241;49.768;8.636;2023-07-22T03:24:39;100072.78;;;19.32;80.41
59435;BME280;45241;49.768;8.636;2023-07-22T03:27:05;100069.38;;;19.42;80.04
59435;BME280;45241;49.768;8.636;2023-07-22T03:29:31;100062.00;;;19.37;79.20
59435;BME280;45241;49.768;8.636;2023-07-22T03:31:57;100062.69;;;19.28;78.52
59435;BME280;45241;49.768;8.636;2023-07-22T03:34:26;100071.50;;;18.63;83.40
59435;BME280;45241;49.768;8.636;2023-07-22T03:36:51;100082.72;;;17.76;86.82
59435;BME280;45241;49.768;8.636;2023-07-22T03:39:16;100083.03;;;18.19;84.47
59435;BME280;45241;49.768;8.636;2023-07-22T03:41:42;100072.75;;;18.38;82.87
59435;BME280;45241;49.768;8.636;2023-07-22T03:44:07;100083.22;;;18.46;82.85
59435;BME280;45241;49.768;8.636;2023-07-22T03:46:32;100071.03;;;18.83;81.08
59435;BME280;45241;49.768;8.636;2023-07-22T03:48:57;100082.13;;;18.64;81.79
59435;BME280;45241;49.768;8.636;2023-07-22T03:51:23;100093.22;;;18.63;83.34
59435;BME280;45241;49.768;8.636;2023-07-22T03:53:48;100091.34;;;18.80;82.47
59435;BME280;45241;49.768;8.636;2023-07-22T03:56:13;100091.00;;;18.93;80.93
59435;BME280;45241;49.768;8.636;2023-07-22T03:58:39;100091.16;;;18.19;85.33
59435;BME280;45241;49.768;8.636;2023-07-22T04:01:04;100085.50;;;18.71;82.08
59435;BME280;45241;49.768;8.636;2023-07-22T04:03:29;100081.88;;;18.66;82.23
59435;BME280;45241;49.768;8.636;2023-07-22T04:05:56;100078.03;;;18.78;81.08
59435;BME280;45241;49.768;8.636;2023-07-22T04:08:21;100080.00;;;18.83;81.88
59435;BME280;45241;49.768;8.636;2023-07-22T04:10:57;100076.72;;;18.81;82.03
59435;BME280;45241;49.768;8.636;2023-07-22T04:13:24;100070.28;;;18.70;82.61
59435;BME280;45241;49.768;8.636;2023-07-22T04:15:50;100073.06;;;18.75;82.51
59435;BME280;45241;49.768;8.636;2023-07-22T04:18:16;100071.34;;;18.69;82.40
59435;BME280;45241;49.768;8.636;2023-07-22T04:20:41;100076.19;;;18.67;82.80
59435;BME280;45241;49.768;8.636;2023-07-22T04:23:07;100070.84;;;18.72;82.33
59435;BME280;45241;49.768;8.636;2023-07-22T04:25:32;100068.53;;;18.64;82.33
59435;BME280;45241;49.768;8.636;2023-07-22T04:27:57;100069.63;;;18.80;82.86
59435;BME280;45241;49.768;8.636;2023-07-22T04:30:23;100076.94;;;18.63;83.03
59435;BME280;45241;49.768;8.636;2023-07-22T04:32:49;100079.50;;;18.69;81.91
59435;BME280;45241;49.768;8.636;2023-07-22T04:35:16;100075.16;;;18.68;82.03
59435;BME280;45241;49.768;8.636;2023-07-22T04:37:43;100075.53;;;18.77;82.75
59435;BME280;45241;49.768;8.636;2023-07-22T04:40:10;100083.56;;;18.84;83.75
59435;BME280;45241;49.768;8.636;2023-07-22T04:42:39;100075.47;;;18.72;83.56
59435;BME280;45241;49.768;8.636;2023-07-22T04:45:04;100079.75;;;18.85;83.39
59435;BME280;45241;49.768;8.636;2023-07-22T04:47:31;100087.81;;;18.79;84.70
59435;BME280;45241;49.768;8.636;2023-07-22T04:49:56;100089.63;;;18.91;84.06
59435;BME280;45241;49.768;8.636;2023-07-22T04:52:22;100088.38;;;18.98;85.00
59435;BME280;45241;49.768;8.636;2023-07-22T04:54:47;100081.97;;;18.88;85.26
59435;BME280;45241;49.768;8.636;2023-07-22T04:57:12;100082.03;;;18.93;86.17
59435;BME280;45241;49.768;8.636;2023-07-22T04:59:38;100083.81;;;19.04;84.51
59435;BME280;45241;49.768;8.636;2023-07-22T05:02:03;100087.75;;;19.13;83.59
59435;BME280;45241;49.768;8.636;2023-07-22T05:04:29;100083.00;;;19.03;82.74
59435;BME280;45241;49.768;8.636;2023-07-22T05:06:54;100083.16;;;19.14;82.79
59435;BME280;45241;49.768;8.636;2023-07-22T05:09:20;100087.81;;;19.18;83.37
59435;BME280;45241;49.768;8.636;2023-07-22T05:11:45;100092.31;;;19.07;82.76
59435;BME280;45241;49.768;8.636;2023-07-22T05:14:10;100091.63;;;19.17;82.27
59435;BME280;45241;49.768;8.636;2023-07-22T05:16:36;100096.88;;;19.24;83.32
59435;BME280;45241;49.768;8.636;2023-07-22T05:19:01;100089.91;;;19.11;83.80
59435;BME280;45241;49.768;8.636;2023-07-22T05:21:26;100095.84;;;19.08;83.11
59435;BME280;45241;49.768;8.636;2023-07-22T05:23:52;100092.47;;;19.01;83.41
59435;BME280;45241;49.768;8.636;2023-07-22T05:26:17;100098.31;;;19.10;83.10
59435;BME280;45241;49.768;8.636;2023-07-22T05:28:42;100086.25;;;19.22;83.84
59435;BME280;45241;49.768;8.636;2023-07-22T05:31:08;100092.72;;;19.38;84.87
59435;BME280;45241;49.768;8.636;2023-07-22T05:33:33;100097.53;;;19.53;83.69
59435;BME280;45241;49.768;8.636;2023-07-22T05:35:58;100091.91;;;19.59;81.93
59435;BME280;45241;49.768;8.636;2023-07-22T05:38:24;100093.50;;;19.77;81.48
59435;BME280;45241;49.768;8.636;2023-07-22T05:40:49;100094.63;;;19.81;81.40
59435;BME280;45241;49.768;8.636;2023-07-22T05:43:15;100095.78;;;19.85;80.92
59435;BME280;45241;49.768;8.636;2023-07-22T05:45:40;100095.44;;;19.82;79.21
59435;BME280;45241;49.768;8.636;2023-07-22T05:48:05;100096.66;;;19.96;79.58
59435;BME280;45241;49.768;8.636;2023-07-22T05:50:31;100093.53;;;19.82;78.25
59435;BME280;45241;49.768;8.636;2023-07-22T05:52:56;100095.50;;;19.65;76.99
59435;BME280;45241;49.768;8.636;2023-07-22T05:55:21;100089.03;;;19.93;77.30
59435;BME280;45241;49.768;8.636;2023-07-22T05:57:47;100099.13;;;19.98;76.66
59435;BME280;45241;49.768;8.636;2023-07-22T06:00:12;100090.06;;;20.14;76.53
59435;BME280;45241;49.768;8.636;2023-07-22T06:02:38;100091.47;;;20.21;76.96
59435;BME280;45241;49.768;8.636;2023-07-22T06:05:04;100089.84;;;20.20;76.48
59435;BME280;45241;49.768;8.636;2023-07-22T06:07:29;100099.44;;;20.28;75.96
59435;BME280;45241;49.768;8.636;2023-07-22T06:09:55;100095.66;;;20.29;75.82
59435;BME280;45241;49.768;8.636;2023-07-22T06:12:21;100098.94;;;20.31;77.11
59435;BME280;45241;49.768;8.636;2023-07-22T06:14:46;100109.56;;;20.33;76.28
59435;BME280;45241;49.768;8.636;2023-07-22T06:17:11;100102.63;;;20.20;74.33
59435;BME280;45241;49.768;8.636;2023-07-22T06:19:36;100117.44;;;20.02;76.06
59435;BME280;45241;49.768;8.636;2023-07-22T06:22:02;100111.56;;;20.42;75.70
59435;BME280;45241;49.768;8.636;2023-07-22T06:24:27;100114.47;;;20.36;76.13
59435;BME280;45241;49.768;8.636;2023-07-22T06:26:52;100118.69;;;20.48;78.03
59435;BME280;45241;49.768;8.636;2023-07-22T06:29:18;100125.59;;;20.29;76.32
59435;BME280;45241;49.768;8.636;2023-07-22T06:31:43;100120.31;;;20.49;76.61
59435;BME280;45241;49.768;8.636;2023-07-22T06:34:08;100124.16;;;20.21;76.79
59435;BME280;45241;49.768;8.636;2023-07-22T06:36:34;100127.94;;;20.47;76.86
59435;BME280;45241;49.768;8.636;2023-07-22T06:38:59;100123.63;;;20.51;76.82
59435;BME280;45241;49.768;8.636;2023-07-22T06:41:24;100121.38;;;20.43;77.76
59435;BME280;45241;49.768;8.636;2023-07-22T06:43:50;100131.78;;;20.51;77.86
59435;BME280;45241;49.768;8.636;2023-07-22T06:46:15;100125.81;;;20.54;76.64
59435;BME280;45241;49.768;8.636;2023-07-22T06:48:41;100126.41;;;20.62;76.82
59435;BME280;45241;49.768;8.636;2023-07-22T06:51:07;100122.75;;;20.46;77.95
59435;BME280;45241;49.768;8.636;2023-07-22T06:53:33;100124.72;;;20.50;76.04
59435;BME280;45241;49.768;8.636;2023-07-22T06:55:58;100121.91;;;20.45;75.01
59435;BME280;45241;49.768;8.636;2023-07-22T06:58:23;100129.38;;;20.55;75.77
59435;BME280;45241;49.768;8.636;2023-07-22T07:00:53;100135.91;;;20.54;76.13
59435;BME280;45241;49.768;8.636;2023-07-22T07:03:19;100133.88;;;20.71;74.98
59435;BME280;45241;49.768;8.636;2023-07-22T07:05:51;100133.16;;;20.54;75.92
59435;BME280;45241;49.768;8.636;2023-07-22T07:08:17;100138.88;;;20.52;74.79
59435;BME280;45241;49.768;8.636;2023-07-22T07:10:42;100135.66;;;20.61;75.67
59435;BME280;45241;49.768;8.636;2023-07-22T07:13:07;100129.63;;;20.53;75.67
59435;BME280;45241;49.768;8.636;2023-07-22T07:15:34;100134.75;;;20.77;75.75
59435;BME280;45241;49.768;8.636;2023-07-22T07:17:59;100135.44;;;20.99;75.08
59435;BME280;45241;49.768;8.636;2023-07-22T07:20:24;100129.72;;;21.01;75.13
59435;BME280;45241;49.768;8.636;2023-07-22T07:22:50;100133.78;;;20.93;75.14
59435;BME280;45241;49.768;8.636;2023-07-22T07:25:15;100137.78;;;20.80;74.99
59435;BME280;45241;49.768;8.636;2023-07-22T07:27:41;100134.09;;;21.02;75.76
59435;BME280;45241;49.768;8.636;2023-07-22T07:30:07;100142.53;;;21.00;75.53
59435;BME280;45241;49.768;8.636;2023-07-22T07:32:33;100140.69;;;21.06;74.71
59435;BME280;45241;49.768;8.636;2023-07-22T07:34:59;100130.47;;;21.28;74.11
59435;BME280;45241;49.768;8.636;2023-07-22T07:37:24;100139.59;;;21.07;75.70
59435;BME280;45241;49.768;8.636;2023-07-22T07:39:49;100143.63;;;20.99;75.43
59435;BME280;45241;49.768;8.636;2023-07-22T07:42:14;100152.16;;;21.13;75.36
59435;BME280;45241;49.768;8.636;2023-07-22T07:44:40;100145.25;;;21.00;74.65
59435;BME280;45241;49.768;8.636;2023-07-22T07:47:08;100149.75;;;21.17;75.38
59435;BME280;45241;49.768;8.636;2023-07-22T07:49:33;100145.41;;;21.21;75.96
59435;BME280;45241;49.768;8.636;2023-07-22T07:51:59;100145.78;;;21.39;74.58
59435;BME280;45241;49.768;8.636;2023-07-22T07:54:24;100149.56;;;21.33;73.84
59435;BME280;45241;49.768;8.636;2023-07-22T07:56:49;100140.97;;;21.09;74.41
59435;BME280;45241;49.768;8.636;2023-07-22T07:59:15;100146.03;;;21.33;73.70
59435;BME280;45241;49.768;8.636;2023-07-22T08:01:40;100142.50;;;21.37;73.62
59435;BME280;45241;49.768;8.636;2023-07-22T08:04:07;100142.09;;;21.61;73.42
59435;BME280;45241;49.768;8.636;2023-07-22T08:06:33;100146.25;;;21.79;73.76
59435;BME280;45241;49.768;8.636;2023-07-22T08:08:59;100141.28;;;21.60;73.78
59435;BME280;45241;49.768;8.636;2023-07-22T08:11:28;100138.88;;;21.69;74.54
59435;BME280;45241;49.768;8.636;2023-07-22T08:13:53;100147.84;;;21.59;73.00
59435;BME280;45241;49.768;8.636;2023-07-22T08:16:18;100141.38;;;21.81;72.00
59435;BME280;45241;49.768;8.636;2023-07-22T08:18:44;100153.41;;;21.90;69.96
59435;BME280;45241;49.768;8.636;2023-07-22T08:21:12;100138.44;;;22.02;69.24
59435;BME280;45241;49.768;8.636;2023-07-22T08:23:37;100140.47;;;22.53;69.41
59435;BME280;45241;49.768;8.636;2023-07-22T08:26:03;100137.38;;;22.14;69.11
59435;BME280;45241;49.768;8.636;2023-07-22T08:28:31;100146.38;;;22.09;71.47
59435;BME280;45241;49.768;8.636;2023-07-22T08:30:56;100147.16;;;21.99;71.69
59435;BME280;45241;49.768;8.636;2023-07-22T08:33:22;100143.88;;;22.02;71.66
59435;BME280;45241;49.768;8.636;2023-07-22T08:35:51;100137.06;;;22.00;72.84
59435;BME280;45241;49.768;8.636;2023-07-22T08:38:17;100132.72;;;22.14;72.41
59435;BME280;45241;49.768;8.636;2023-07-22T08:40:42;100137.13;;;22.20;72.32
59435;BME280;45241;49.768;8.636;2023-07-22T08:43:09;100135.50;;;22.35;72.22
59435;BME280;45241;49.768;8.636;2023-07-22T08:45:37;100123.78;;;22.44;71.91
59435;BME280;45241;49.768;8.636;2023-07-22T08:48:04;100124.63;;;22.50;70.42
59435;BME280;45241;49.768;8.636;2023-07-22T08:50:38;100123.22;;;22.83;69.89
59435;BME280;45241;49.768;8.636;2023-07-22T08:53:05;100124.63;;;22.85;68.07
59435;BME280;45241;49.768;8.636;2023-07-22T08:55:30;100127.63;;;22.74;66.29
59435;BME280;45241;49.768;8.636;2023-07-22T08:57:56;100128.44;;;22.74;65.57
59435;BME280;45241;49.768;8.636;2023-07-22T09:00:24;100122.97;;;22.79;65.49
59435;BME280;45241;49.768;8.636;2023-07-22T09:02:49;100119.94;;;22.96;63.94
59435;BME280;45241;49.768;8.636;2023-07-22T09:05:15;100124.34;;;22.67;62.61
59435;BME280;45241;49.768;8.636;2023-07-22T09:07:42;100120.22;;;22.89;62.48
59435;BME280;45241;49.768;8.636;2023-07-22T09:10:08;100118.56;;;23.04;62.32
59435;BME280;45241;49.768;8.636;2023-07-22T09:12:34;100121.28;;;23.19;60.93
59435;BME280;45241;49.768;8.636;2023-07-22T09:15:11;100112.16;;;23.54;60.93
59435;BME280;45241;49.768;8.636;2023-07-22T09:17:38;100116.84;;;23.43;59.51
59435;BME280;45241;49.768;8.636;2023-07-22T09:20:04;100114.91;;;23.54;60.77
59435;BME280;45241;49.768;8.636;2023-07-22T09:22:29;100114.28;;;23.67;58.39
59435;BME280;45241;49.768;8.636;2023-07-22T09:25:18;100111.31;;;23.59;57.66
59435;BME280;45241;49.768;8.636;2023-07-22T09:27:45;100104.53;;;23.51;56.50
59435;BME280;45241;49.768;8.636;2023-07-22T09:32:52;100105.16;;;23.87;58.39
59435;BME280;45241;49.768;8.636;2023-07-22T09:35:18;100103.34;;;23.67;56.50
59435;BME280;45241;49.768;8.636;2023-07-22T09:37:44;100112.91;;;23.70;55.66
59435;BME280;45241;49.768;8.636;2023-07-22T09:42:46;100097.06;;;23.67;53.79
59435;BME280;45241;49.768;8.636;2023-07-22T09:45:11;100113.13;;;23.84;55.02
59435;BME280;45241;49.768;8.636;2023-07-22T09:47:44;100116.38;;;23.91;54.60
59435;BME280;45241;49.768;8.636;2023-07-22T09:50:17;100110.41;;;23.79;54.15
59435;BME280;45241;49.768;8.636;2023-07-22T09:52:51;100102.31;;;23.53;55.53
59435;BME280;45241;49.768;8.636;2023-07-22T09:55:19;100098.94;;;23.76;55.33
59435;BME280;45241;49.768;8.636;2023-07-22T09:57:47;100095.50;;;24.05;55.47
59435;BME280;45241;49.768;8.636;2023-07-22T10:00:15;100090.78;;;24.16;55.29
59435;BME280;45241;49.768;8.636;2023-07-22T10:02:41;100093.25;;;24.17;55.77
59435;BME280;45241;49.768;8.636;2023-07-22T10:05:14;100088.72;;;24.65;55.47
59435;BME280;45241;49.768;8.636;2023-07-22T10:07:47;100082.06;;;25.06;51.41
59435;BME280;45241;49.768;8.636;2023-07-22T10:10:16;100072.06;;;24.91;51.40
59435;BME280;45241;49.768;8.636;2023-07-22T10:12:43;100075.41;;;24.20;50.62
59435;BME280;45241;49.768;8.636;2023-07-22T10:15:13;100067.88;;;24.01;51.18
59435;BME280;45241;49.768;8.636;2023-07-22T10:17:40;100076.13;;;23.91;51.58
59435;BME280;45241;49.768;8.636;2023-07-22T10:20:07;100074.63;;;24.14;52.00
59435;BME280;45241;49.768;8.636;2023-07-22T10:22:37;100074.50;;;23.95;52.17
59435;BME280;45241;49.768;8.636;2023-07-22T10:25:06;100067.34;;;23.99;53.22
59435;BME280;45241;49.768;8.636;2023-07-22T10:27:35;100079.84;;;24.16;53.05
59435;BME280;45241;49.768;8.636;2023-07-22T10:30:00;100076.53;;;24.14;53.48
59435;BME280;45241;49.768;8.636;2023-07-22T10:32:34;100066.91;;;24.21;54.43
59435;BME280;45241;49.768;8.636;2023-07-22T10:35:00;100067.41;;;24.28;52.90
59435;BME280;45241;49.768;8.636;2023-07-22T10:37:32;100064.47;;;24.20;53.92
59435;BME280;45241;49.768;8.636;2023-07-22T10:39:59;100062.84;;;24.19;51.95
59435;BME280;45241;49.768;8.636;2023-07-22T10:42:25;100063.94;;;24.18;51.82
59435;BME280;45241;49.768;8.636;2023-07-22T10:44:51;100062.44;;;23.96;51.68
59435;BME280;45241;49.768;8.636;2023-07-22T10:47:33;100066.72;;;23.63;53.93
59435;BME280;45241;49.768;8.636;2023-07-22T10:50:06;100049.94;;;23.75;54.32
59435;BME280;45241;49.768;8.636;2023-07-22T10:52:43;100059.53;;;23.72;54.38
59435;BME280;45241;49.768;8.636;2023-07-22T10:55:16;100063.28;;;23.87;56.07
59435;BME280;45241;49.768;8.636;2023-07-22T10:57:49;100056.69;;;23.88;55.44
59435;BME280;45241;49.768;8.636;2023-07-22T11:00:19;100053.13;;;23.92;54.91
59435;BME280;45241;49.768;8.636;2023-07-22T11:03:11;100060.22;;;24.03;54.91
59435;BME280;45241;49.768;8.636;2023-07-22T11:05:50;100054.16;;;24.07;52.70
59435;BME280;45241;49.768;8.636;2023-07-22T11:08:16;100050.72;;;24.25;53.00
59435;BME280;45241;49.768;8.636;2023-07-22T11:10:54;100052.13;;;23.78;51.54
59435;BME280;45241;49.768;8.636;2023-07-22T11:13:27;100051.31;;;23.72;51.91
59435;BME280;45241;49.768;8.636;2023-07-22T11:15:57;100048.75;;;23.91;53.52
59435;BME280;45241;49.768;8.636;2023-07-22T11:18:23;100050.09;;;23.99;52.46
59435;BME280;45241;49.768;8.636;2023-07-22T11:21:00;100042.34;;;23.62;52.50
59435;BME280;45241;49.768;8.636;2023-07-22T11:23:25;100044.13;;;23.87;53.39
59435;BME280;45241;49.768;8.636;2023-07-22T11:25:51;100038.00;;;24.05;52.49
59435;BME280;45241;49.768;8.636;2023-07-22T11:28:16;100045.56;;;24.52;52.65
59435;BME280;45241;49.768;8.636;2023-07-22T11:30:41;100041.38;;;24.60;50.71
59435;BME280;45241;49.768;8.636;2023-07-22T11:33:06;100031.22;;;24.60;51.48
59435;BME280;45241;49.768;8.636;2023-07-22T11:35:32;100029.22;;;24.42;51.76
59435;BME280;45241;49.768;8.636;2023-07-22T11:38:03;100025.25;;;24.53;52.94
59435;BME280;45241;49.768;8.636;2023-07-22T11:40:35;100027.31;;;24.38;52.41
59435;BME280;45241;49.768;8.636;2023-07-22T11:43:00;100027.31;;;24.43;53.38
59435;BME280;45241;49.768;8.636;2023-07-22T11:45:26;100019.09;;;24.43;53.41
59435;BME280;45241;49.768;8.636;2023-07-22T11:47:51;100015.25;;;24.44;52.82
59435;BME280;45241;49.768;8.636;2023-07-22T11:50:16;100019.69;;;24.69;53.21
59435;BME280;45241;49.768;8.636;2023-07-22T11:52:42;100025.00;;;25.08;52.20
59435;BME280;45241;49.768;8.636;2023-07-22T11:55:07;100014.41;;;25.44;52.28
59435;BME280;45241;49.768;8.636;2023-07-22T11:57:32;100013.19;;;25.31;51.35
59435;BME280;45241;49.768;8.636;2023-07-22T11:59:58;100006.78;;;25.17;49.51
59435;BME280;45241;49.768;8.636;2023-07-22T12:02:25;100000.19;;;25.79;51.21
59435;BME280;45241;49.768;8.636;2023-07-22T12:04:56;99985.28;;;25.86;48.22
59435;BME280;45241;49.768;8.636;2023-07-22T12:09:49;99981.59;;;25.76;49.91
59435;BME280;45241;49.768;8.636;2023-07-22T12:12:14;99980.81;;;25.90;49.66
59435;BME280;45241;49.768;8.636;2023-07-22T12:14:41;99973.56;;;26.31;50.75
59435;BME280;45241;49.768;8.636;2023-07-22T12:17:08;99967.69;;;26.38;47.36
59435;BME280;45241;49.768;8.636;2023-07-22T12:19:35;99963.53;;;26.54;47.82
59435;BME280;45241;49.768;8.636;2023-07-22T12:22:00;99966.50;;;26.12;47.74
59435;BME280;45241;49.768;8.636;2023-07-22T12:24:27;99955.44;;;26.30;47.78
59435;BME280;45241;49.768;8.636;2023-07-22T12:26:52;99965.41;;;26.07;48.78
59435;BME280;45241;49.768;8.636;2023-07-22T12:29:17;99954.91;;;26.15;47.75
59435;BME280;45241;49.768;8.636;2023-07-22T12:31:43;99954.78;;;25.87;45.90
59435;BME280;45241;49.768;8.636;2023-07-22T12:34:08;99951.88;;;25.97;46.00
59435;BME280;45241;49.768;8.636;2023-07-22T12:36:33;99947.00;;;26.08;45.13
59435;BME280;45241;49.768;8.636;2023-07-22T12:38:59;99952.28;;;26.23;44.62
59435;BME280;45241;49.768;8.636;2023-07-22T12:41:24;99954.84;;;26.33;44.48
59435;BME280;45241;49.768;8.636;2023-07-22T12:43:49;99946.59;;;26.33;45.42
59435;BME280;45241;49.768;8.636;2023-07-22T12:46:15;99942.59;;;26.12;44.61
59435;BME280;45241;49.768;8.636;2023-07-22T12:48:41;99937.44;;;26.05;43.52
59435;BME280;45241;49.768;8.636;2023-07-22T12:51:06;99942.63;;;26.26;45.11
59435;BME280;45241;49.768;8.636;2023-07-22T12:53:32;99937.19;;;26.21;43.64
59435;BME280;45241;49.768;8.636;2023-07-22T12:55:57;99936.63;;;26.24;44.05